createdAt,value
2019-03-20T00:04:49.563Z,6.10
2019-03-20T00:09:47.860Z,7.07
2019-03-20T00:14:49.224Z,6.17
2019-03-20T00:19:50.600Z,6.57
2019-03-20T00:24:51.935Z,6.53
2019-03-20T00:29:53.340Z,6.27
2019-03-20T00:35:00.716Z,6.40
2019-03-20T00:39:58.091Z,5.57
2019-03-20T00:44:59.464Z,5.40
2019-03-20T00:50:00.805Z,6.20
2019-03-20T00:55:04.691Z,5.83
2019-03-20T01:00:17.500Z,6.00
2019-03-20T01:05:20.984Z,6.40
2019-03-20T01:10:23.370Z,6.37
2019-03-20T01:15:24.730Z,5.53
2019-03-20T01:20:26.118Z,5.97
2019-03-20T01:25:27.588Z,5.67
2019-03-20T01:30:31.095Z,6.67
2019-03-20T01:35:33.691Z,6.47
2019-03-20T01:40:35.231Z,6.40
2019-03-20T01:45:36.776Z,6.97
2019-03-20T01:50:38.292Z,6.50
2019-03-20T01:55:39.631Z,6.97
2019-03-20T02:00:41.101Z,7.00
2019-03-20T02:05:42.456Z,6.77
2019-03-20T02:10:43.849Z,8.03
2019-03-20T02:15:45.183Z,7.30
2019-03-20T02:20:46.807Z,7.80
2019-03-20T02:25:48.218Z,7.30
2019-03-20T02:30:49.620Z,6.80
2019-03-20T02:35:52.344Z,7.17
2019-03-20T02:40:54.932Z,7.00
2019-03-20T02:45:56.218Z,7.37
2019-03-20T02:50:57.625Z,7.27
2019-03-20T02:55:59.000Z,6.90
2019-03-20T03:01:00.489Z,7.90
2019-03-20T03:06:07.269Z,7.37
2019-03-20T03:11:05.447Z,6.30
2019-03-20T03:16:07.832Z,7.33
2019-03-20T03:21:09.166Z,6.93
2019-03-20T03:26:10.662Z,6.47
2019-03-20T03:31:11.997Z,6.20
2019-03-20T03:36:21.224Z,5.97
2019-03-20T03:41:18.663Z,6.20
2019-03-20T03:46:19.997Z,6.00
2019-03-20T03:51:21.385Z,5.80
2019-03-20T03:56:22.810Z,5.93
2019-03-20T04:01:24.218Z,5.17
2019-03-20T04:06:35.492Z,4.27
2019-03-20T04:11:29.171Z,5.03
2019-03-20T04:16:30.626Z,5.50
2019-03-20T04:21:32.020Z,5.30
2019-03-20T04:26:33.482Z,5.20
2019-03-20T04:31:34.816Z,5.93
2019-03-20T04:36:47.218Z,5.97
2019-03-20T04:41:39.514Z,5.93
2019-03-20T04:46:40.843Z,6.40
2019-03-20T04:51:42.353Z,6.87
2019-03-20T04:56:43.682Z,7.33
2019-03-20T05:01:46.127Z,7.03
2019-03-20T05:06:57.959Z,7.37
2019-03-20T05:11:51.878Z,7.77
2019-03-20T05:16:53.340Z,7.47
2019-03-20T05:21:54.743Z,7.83
2019-03-20T05:26:56.200Z,8.63
2019-03-20T05:31:57.533Z,8.07
2019-03-20T05:37:09.609Z,7.30
2019-03-20T05:42:02.345Z,7.80
2019-03-20T05:47:03.662Z,7.97
2019-03-20T05:52:05.152Z,8.70
2019-03-20T05:57:06.516Z,8.33
2019-03-20T06:02:07.927Z,8.40
2019-03-20T06:07:09.331Z,8.80
2019-03-20T06:12:10.728Z,8.73
2019-03-20T06:17:12.058Z,8.80
2019-03-20T06:22:13.459Z,9.03
2019-03-20T06:27:14.790Z,8.03
2019-03-20T06:32:16.171Z,7.73
2019-03-20T06:37:17.535Z,8.10
2019-03-20T06:42:18.916Z,7.90
2019-03-20T06:47:20.283Z,8.17
2019-03-20T06:52:21.739Z,7.97
2019-03-20T06:57:23.083Z,7.07
2019-03-20T07:02:24.497Z,6.10
2019-03-20T07:07:31.538Z,7.10
2019-03-20T07:12:33.022Z,5.30
2019-03-20T07:17:34.387Z,5.60
2019-03-20T07:22:35.762Z,5.10
2019-03-20T07:27:37.444Z,4.53
2019-03-20T07:32:38.886Z,4.67
2019-03-20T07:37:40.342Z,5.53
2019-03-20T07:42:41.809Z,4.77
2019-03-20T07:47:43.120Z,5.20
2019-03-20T07:52:44.546Z,4.70
2019-03-20T07:57:45.952Z,5.60
2019-03-20T08:02:48.526Z,4.67
2019-03-20T08:07:49.847Z,4.83
2019-03-20T08:12:51.297Z,4.20
2019-03-20T08:17:54.362Z,4.97
2019-03-20T08:22:55.707Z,4.50
2019-03-20T08:27:57.065Z,4.47
2019-03-20T08:32:58.459Z,4.03
2019-03-20T08:38:00.164Z,4.73
2019-03-20T08:43:01.604Z,5.00
2019-03-20T08:48:03.620Z,4.40
2019-03-20T08:53:05.050Z,4.90
2019-03-20T08:58:06.599Z,4.63
2019-03-20T09:03:07.955Z,4.07
2019-03-20T09:08:09.355Z,4.57
2019-03-20T09:13:12.719Z,3.70
2019-03-20T09:18:14.125Z,3.60
2019-03-20T09:23:15.540Z,3.50
2019-03-20T09:28:16.954Z,3.67
2019-03-20T09:33:18.406Z,3.00
2019-03-20T09:38:20.028Z,3.40
2019-03-20T09:43:21.420Z,3.60
2019-03-20T09:48:23.848Z,3.53
2019-03-20T09:53:25.613Z,3.50
2019-03-20T09:58:27.041Z,3.17
2019-03-20T10:03:28.384Z,2.63
2019-03-20T10:08:29.818Z,2.63
2019-03-20T10:13:31.220Z,2.90
2019-03-20T10:18:33.275Z,2.27
2019-03-20T10:23:34.667Z,2.30
2019-03-20T10:28:36.067Z,2.90
2019-03-20T10:33:37.483Z,2.63
2019-03-20T10:38:39.175Z,2.53
2019-03-20T10:43:40.667Z,2.33
2019-03-20T10:48:42.147Z,2.53
2019-03-20T10:53:43.603Z,2.40
2019-03-20T10:58:45.057Z,2.40
2019-03-20T11:03:46.439Z,1.97
2019-03-20T11:08:48.035Z,2.73
2019-03-20T11:13:49.405Z,3.13
2019-03-20T11:18:50.856Z,2.40
2019-03-20T11:23:53.358Z,2.37
2019-03-20T11:28:58.170Z,1.70
2019-03-20T11:33:59.781Z,2.70
2019-03-20T11:39:01.387Z,2.07
2019-03-20T11:44:03.170Z,1.90
2019-03-20T11:49:04.523Z,2.20
2019-03-20T11:54:05.919Z,1.90
2019-03-20T11:59:07.390Z,2.00
2019-03-20T12:04:08.845Z,1.67
2019-03-20T12:09:10.351Z,1.70
2019-03-20T12:14:12.191Z,2.00
2019-03-20T12:19:13.665Z,2.60
2019-03-20T12:24:15.190Z,2.30
2019-03-20T12:29:16.616Z,1.73
2019-03-20T12:34:18.034Z,2.80
2019-03-20T12:39:19.521Z,2.07
2019-03-20T12:44:20.988Z,2.63
2019-03-20T12:49:22.494Z,2.00
2019-03-20T12:54:23.920Z,2.10
2019-03-20T12:59:25.580Z,2.60
2019-03-20T13:04:26.951Z,2.63
2019-03-20T13:09:28.428Z,2.10
2019-03-20T13:14:30.008Z,1.50
2019-03-20T13:19:31.365Z,2.03
2019-03-20T13:24:32.837Z,2.20
2019-03-20T13:29:34.284Z,1.80
2019-03-20T13:34:35.759Z,2.33
2019-03-20T13:39:37.294Z,2.30
2019-03-20T13:44:38.689Z,1.87
2019-03-20T13:49:41.100Z,2.30
2019-03-20T13:54:42.521Z,2.63
2019-03-20T13:59:43.903Z,2.27
2019-03-20T14:04:45.339Z,2.70
2019-03-20T14:09:46.721Z,2.80
2019-03-20T14:14:48.491Z,2.67
2019-03-20T14:19:50.011Z,3.03
2019-03-20T14:24:51.474Z,3.27
2019-03-20T14:29:52.880Z,2.57
2019-03-20T14:34:55.190Z,2.17
2019-03-20T14:39:56.694Z,2.40
2019-03-20T14:44:58.172Z,2.30
2019-03-20T14:49:59.592Z,2.63
2019-03-20T14:55:00.977Z,3.13
2019-03-20T15:00:08.295Z,3.37
2019-03-20T15:05:10.301Z,3.07
2019-03-20T15:10:15.016Z,2.50
2019-03-20T15:15:39.428Z,3.10
2019-03-20T15:20:41.004Z,3.00
2019-03-20T15:25:44.296Z,2.60
2019-03-20T15:30:45.740Z,2.23
2019-03-20T15:35:47.178Z,3.13
2019-03-20T15:40:55.907Z,2.90
2019-03-20T15:45:51.980Z,2.80
2019-03-20T15:50:53.418Z,2.50
2019-03-20T15:55:54.804Z,2.50
2019-03-20T16:00:56.282Z,2.90
2019-03-20T16:05:57.633Z,2.70
2019-03-20T16:11:06.621Z,2.77
2019-03-20T16:16:16.616Z,2.70
2019-03-20T16:21:17.981Z,2.90
2019-03-20T16:26:19.387Z,2.70
2019-03-20T16:31:21.896Z,2.80
2019-03-20T16:36:23.415Z,3.17
2019-03-20T16:41:24.895Z,2.87
2019-03-20T16:46:26.545Z,2.93
2019-03-20T16:51:27.918Z,3.00
2019-03-20T16:56:29.355Z,3.07
2019-03-20T17:01:30.734Z,2.43
2019-03-20T17:06:32.057Z,2.20
2019-03-20T17:11:38.300Z,2.53
2019-03-20T17:16:37.728Z,2.90
2019-03-20T17:21:39.267Z,3.13
2019-03-20T17:26:40.590Z,2.73
2019-03-20T17:31:42.014Z,2.53
2019-03-20T17:36:43.454Z,3.00
2019-03-20T17:41:44.826Z,2.70
2019-03-20T17:46:46.180Z,4.10
2019-03-20T17:51:47.510Z,3.43
2019-03-20T17:56:48.931Z,3.60
2019-03-20T18:01:50.271Z,3.83
2019-03-20T18:06:51.625Z,3.63
2019-03-20T18:11:53.037Z,3.67
2019-03-20T18:16:54.365Z,3.57
2019-03-20T18:21:55.743Z,4.00
2019-03-20T18:26:57.067Z,4.60
2019-03-20T18:31:58.424Z,5.50
2019-03-20T18:36:59.747Z,5.70
2019-03-20T18:42:02.313Z,4.90
2019-03-20T18:47:03.707Z,5.50
2019-03-20T18:52:10.995Z,4.70
2019-03-20T18:57:12.370Z,4.40
2019-03-20T19:02:13.692Z,5.20
2019-03-20T19:07:15.032Z,4.70
2019-03-20T19:12:16.479Z,5.40
2019-03-20T19:17:17.823Z,5.20
2019-03-20T19:22:19.252Z,5.80
2019-03-20T19:27:20.683Z,10.77
2019-03-20T19:32:22.023Z,9.70
2019-03-20T19:37:23.372Z,12.13
2019-03-20T19:42:24.708Z,11.93
2019-03-20T19:47:26.048Z,13.20
2019-03-20T19:52:27.401Z,13.03
2019-03-20T19:57:29.748Z,12.13
2019-03-20T20:02:31.066Z,14.10
2019-03-20T20:07:32.402Z,11.07
2019-03-20T20:12:33.759Z,7.77
2019-03-20T20:17:35.101Z,8.03
2019-03-20T20:22:36.447Z,6.37
2019-03-20T20:27:37.800Z,9.53
2019-03-20T20:32:39.217Z,5.70
2019-03-20T20:37:40.800Z,6.27
2019-03-20T20:42:43.262Z,5.60
2019-03-20T20:47:44.784Z,5.23
2019-03-20T20:52:46.210Z,8.47
2019-03-20T20:57:47.739Z,5.33
2019-03-20T21:02:50.996Z,7.20
2019-03-20T21:07:52.480Z,9.10
2019-03-20T21:12:56.599Z,5.93
2019-03-20T21:18:43.071Z,6.10
2019-03-20T21:24:21.740Z,6.90
2019-03-20T21:30:11.621Z,8.33
2019-03-20T21:35:47.568Z,9.70
2019-03-20T21:41:12.910Z,10.17
2019-03-20T21:47:07.655Z,10.70
2019-03-20T21:52:09.003Z,10.70
2019-03-20T21:57:48.171Z,10.53
2019-03-20T22:02:49.517Z,11.43
2019-03-20T22:07:51.870Z,9.93
2019-03-20T22:13:18.819Z,9.73
2019-03-20T22:18:56.187Z,9.17
2019-03-20T22:24:06.286Z,9.77
2019-03-20T22:29:23.032Z,9.37
2019-03-20T22:34:42.153Z,11.93
2019-03-20T22:40:15.330Z,9.47
2019-03-20T22:45:58.714Z,8.90
2019-03-20T22:51:31.808Z,9.43
2019-03-20T22:57:08.590Z,9.17
2019-03-20T23:02:32.483Z,9.40
2019-03-20T23:07:33.820Z,10.00
2019-03-20T23:12:35.244Z,10.20
2019-03-20T23:17:36.602Z,9.17
2019-03-20T23:22:37.928Z,9.63
2019-03-20T23:27:39.274Z,9.27
2019-03-20T23:32:40.610Z,9.53
2019-03-20T23:37:42.952Z,8.70
2019-03-20T23:42:59.673Z,9.03
2019-03-20T23:48:21.174Z,9.50
2019-03-20T23:53:22.506Z,9.70
2019-03-20T23:58:23.845Z,9.03
